Time;durP1;ratioP1;P1;durP2;ratioP2;P2;SDS_P1;SDS_P2;PMS_P1;PMS_P2;Temp;Humidity;BMP_temperature;BMP_pressure;BME280_temperature;BME280_humidity;BME280_pressure;Samples;Min_cycle;Max_cycle;Signal;HPM_P1;HPM_P2
2023/09/17 00:00:52;;;;;;;40.37;35.97;;;;;;;;;;5005196;28;20474;-79
2023/09/17 00:03:19;;;;;;;39.60;34.70;;;;;;;;;;5024173;28;20462;-81
2023/09/17 00:05:45;;;;;;;41.27;33.87;;;;;;;;;;5015825;28;21029;-79
2023/09/17 00:08:12;;;;;;;37.03;32.20;;;;;;;;;;5018595;28;20491;-81
2023/09/17 00:10:43;;;;;;;42.00;34.80;;;;;;;;;;5020607;28;20455;-80
2023/09/17 00:13:09;;;;;;;44.07;36.13;;;;;;;;;;5007391;28;20551;-79
2023/09/17 00:15:36;;;;;;;44.63;38.70;;;;;;;;;;5018397;28;20458;-79
2023/09/17 00:18:03;;;;;;;47.10;39.60;;;;;;;;;;5016944;28;20466;-83
2023/09/17 00:20:32;;;;;;;39.60;34.60;;;;;;;;;;5028111;28;20458;-79
2023/09/17 00:23:00;;;;;;;42.10;37.10;;;;;;;;;;5015751;28;20485;-81
2023/09/17 00:25:27;;;;;;;42.00;37.50;;;;;;;;;;5010573;28;20466;-80
2023/09/17 00:27:53;;;;;;;42.70;37.70;;;;;;;;;;5010154;28;20475;-79
2023/09/17 00:30:20;;;;;;;48.40;38.20;;;;;;;;;;5020156;28;21007;-82
2023/09/17 00:32:46;;;;;;;48.50;41.20;;;;;;;;;;5020537;28;20470;-80
2023/09/17 00:35:14;;;;;;;49.90;41.60;;;;;;;;;;5015503;28;20468;-79
2023/09/17 00:37:41;;;;;;;40.70;35.60;;;;;;;;;;5023563;28;21084;-79
2023/09/17 00:40:09;;;;;;;45.20;39.57;;;;;;;;;;5025675;28;20458;-79
2023/09/17 00:42:36;;;;;;;50.73;40.43;;;;;;;;;;5023558;28;20474;-79
2023/09/17 00:45:03;;;;;;;46.30;38.20;;;;;;;;;;5016951;28;20466;-80
2023/09/17 00:47:30;;;;;;;43.00;38.07;;;;;;;;;;5025424;28;20471;-79
2023/09/17 00:49:56;;;;;;;43.53;34.97;;;;;;;;;;4991283;28;20471;-79
2023/09/17 00:52:25;;;;;;;40.23;32.80;;;;;;;;;;4991479;28;20488;-80
2023/09/17 00:54:52;;;;;;;40.70;29.97;;;;;;;;;;5008164;28;20470;-80
2023/09/17 00:57:19;;;;;;;38.57;34.13;;;;;;;;;;5026231;28;20460;-79
2023/09/17 00:59:47;;;;;;;48.43;40.40;;;;;;;;;;5022752;28;20468;-79
2023/09/17 01:02:14;;;;;;;44.23;37.97;;;;;;;;;;5011803;28;20477;-79
2023/09/17 01:04:43;;;;;;;43.37;38.60;;;;;;;;;;5008917;28;20466;-80
2023/09/17 01:07:10;;;;;;;48.30;40.60;;;;;;;;;;5009431;28;20540;-80
2023/09/17 01:09:38;;;;;;;42.57;37.97;;;;;;;;;;5018807;28;20461;-80
2023/09/17 01:12:05;;;;;;;32.73;29.30;;;;;;;;;;5010700;28;20517;-80
2023/09/17 01:14:33;;;;;;;33.20;28.20;;;;;;;;;;5014639;28;21035;-80
2023/09/17 01:17:03;;;;;;;35.10;29.20;;;;;;;;;;5019066;28;20539;-81
2023/09/17 01:19:32;;;;;;;34.13;30.43;;;;;;;;;;5024328;28;20469;-80
2023/09/17 01:22:02;;;;;;;42.70;36.53;;;;;;;;;;5032087;28;20527;-80
2023/09/17 01:24:30;;;;;;;39.60;32.20;;;;;;;;;;4986458;28;20464;-82
2023/09/17 01:27:02;;;;;;;47.27;40.57;;;;;;;;;;5008920;28;20475;-81
2023/09/17 01:29:32;;;;;;;52.37;42.73;;;;;;;;;;5026975;28;20892;-83
2023/09/17 01:31:58;;;;;;;53.87;40.73;;;;;;;;;;5024924;28;20470;-80
2023/09/17 01:34:25;;;;;;;43.20;36.97;;;;;;;;;;5027410;28;20482;-81
2023/09/17 01:36:53;;;;;;;51.87;41.37;;;;;;;;;;4988439;28;21026;-79
2023/09/17 01:39:22;;;;;;;45.50;38.40;;;;;;;;;;4985229;28;20522;-81
2023/09/17 01:41:49;;;;;;;51.63;41.20;;;;;;;;;;5030761;28;20489;-81
2023/09/17 01:44:17;;;;;;;43.60;32.97;;;;;;;;;;5013589;28;20476;-82
2023/09/17 01:46:44;;;;;;;53.00;41.40;;;;;;;;;;5017821;28;20485;-84
2023/09/17 01:49:12;;;;;;;46.27;39.67;;;;;;;;;;4988886;28;20473;-78
2023/09/17 01:51:39;;;;;;;45.20;37.87;;;;;;;;;;4996950;28;20490;-82
2023/09/17 01:54:06;;;;;;;54.47;42.97;;;;;;;;;;5017548;28;20467;-81
2023/09/17 01:56:34;;;;;;;46.53;36.47;;;;;;;;;;5015748;28;20474;-82
2023/09/17 01:59:04;;;;;;;40.60;36.20;;;;;;;;;;5014287;28;20978;-80
2023/09/17 02:01:32;;;;;;;42.47;37.40;;;;;;;;;;5011514;28;21001;-80
2023/09/17 02:03:58;;;;;;;44.33;39.43;;;;;;;;;;5013498;28;20473;-81
2023/09/17 02:06:25;;;;;;;45.77;39.90;;;;;;;;;;5016792;28;20464;-81
2023/09/17 02:08:52;;;;;;;48.67;42.97;;;;;;;;;;4993982;28;20492;-81
2023/09/17 02:11:18;;;;;;;50.57;43.53;;;;;;;;;;5007361;28;20488;-79
2023/09/17 02:13:46;;;;;;;58.30;48.40;;;;;;;;;;5012672;28;20567;-79
2023/09/17 02:16:12;;;;;;;55.17;46.70;;;;;;;;;;5017041;28;20469;-82
2023/09/17 02:18:40;;;;;;;52.87;44.00;;;;;;;;;;5021551;28;20497;-79
2023/09/17 02:21:06;;;;;;;56.60;44.23;;;;;;;;;;4991711;28;20482;-81
2023/09/17 02:23:33;;;;;;;46.70;39.23;;;;;;;;;;5018434;28;20974;-78
2023/09/17 02:26:00;;;;;;;48.07;37.47;;;;;;;;;;5016375;28;20561;-79
2023/09/17 02:28:27;;;;;;;43.20;35.77;;;;;;;;;;5012885;28;20609;-78
2023/09/17 02:30:53;;;;;;;51.10;40.67;;;;;;;;;;4994136;28;20454;-78
2023/09/17 02:33:20;;;;;;;48.10;40.50;;;;;;;;;;4995092;28;20999;-78
2023/09/17 02:35:50;;;;;;;43.10;37.07;;;;;;;;;;5021546;28;20480;-78
2023/09/17 02:38:16;;;;;;;47.63;36.73;;;;;;;;;;5005192;28;20481;-79
2023/09/17 02:40:43;;;;;;;56.87;44.67;;;;;;;;;;4998900;28;20454;-80
2023/09/17 02:43:09;;;;;;;51.77;42.23;;;;;;;;;;5009881;28;20473;-80
2023/09/17 02:45:36;;;;;;;56.67;44.93;;;;;;;;;;5015963;28;20528;-81
2023/09/17 02:48:02;;;;;;;60.87;47.30;;;;;;;;;;4988427;28;20474;-80
2023/09/17 02:50:29;;;;;;;62.50;47.07;;;;;;;;;;4993841;28;20481;-83
2023/09/17 02:52:57;;;;;;;99.37;61.87;;;;;;;;;;4993181;28;21009;-80
2023/09/17 02:55:24;;;;;;;94.80;64.00;;;;;;;;;;4995796;28;20475;-80
2023/09/17 02:57:50;;;;;;;105.63;59.93;;;;;;;;;;5017887;28;20485;-81
2023/09/17 03:00:21;;;;;;;103.77;60.03;;;;;;;;;;5012793;28;20478;-82
2023/09/17 03:02:54;;;;;;;91.97;58.17;;;;;;;;;;5016860;28;20475;-80
2023/09/17 03:05:21;;;;;;;94.97;55.60;;;;;;;;;;5021236;28;20480;-82
2023/09/17 03:07:47;;;;;;;80.10;54.37;;;;;;;;;;4998910;28;20500;-82
2023/09/17 03:10:18;;;;;;;74.43;51.63;;;;;;;;;;5002398;28;20447;-82
2023/09/17 03:12:45;;;;;;;73.80;51.37;;;;;;;;;;5021311;28;20443;-82
2023/09/17 03:15:12;;;;;;;68.90;46.37;;;;;;;;;;5010861;28;20444;-81
2023/09/17 03:17:40;;;;;;;87.33;53.80;;;;;;;;;;5028355;28;20461;-81
2023/09/17 03:20:13;;;;;;;84.50;52.37;;;;;;;;;;5012943;28;20489;-80
2023/09/17 03:22:40;;;;;;;87.03;50.90;;;;;;;;;;5009274;28;20836;-82
2023/09/17 03:25:07;;;;;;;82.20;49.30;;;;;;;;;;5012665;28;20468;-82
2023/09/17 03:27:35;;;;;;;74.40;48.20;;;;;;;;;;5017737;28;20473;-81
2023/09/17 03:30:03;;;;;;;70.43;46.17;;;;;;;;;;5022883;28;20441;-79
2023/09/17 03:32:30;;;;;;;69.90;43.80;;;;;;;;;;5027330;28;21036;-81
2023/09/17 03:34:56;;;;;;;66.63;41.43;;;;;;;;;;4990671;28;20437;-78
2023/09/17 03:37:23;;;;;;;67.00;44.70;;;;;;;;;;5019172;28;20442;-81
2023/09/17 03:40:07;;;;;;;70.83;44.70;;;;;;;;;;5013362;28;21037;-79
2023/09/17 03:42:35;;;;;;;69.53;46.47;;;;;;;;;;5003730;28;20833;-79
2023/09/17 03:45:02;;;;;;;53.97;39.93;;;;;;;;;;5022933;28;20504;-80
2023/09/17 03:47:29;;;;;;;64.60;44.67;;;;;;;;;;5001595;28;20476;-79
2023/09/17 03:49:55;;;;;;;69.43;45.10;;;;;;;;;;5016494;28;21001;-80
2023/09/17 03:52:22;;;;;;;74.63;47.57;;;;;;;;;;5017110;28;20888;-79
2023/09/17 03:54:50;;;;;;;73.13;46.37;;;;;;;;;;5022177;28;20907;-79
2023/09/17 03:57:17;;;;;;;74.77;45.20;;;;;;;;;;5027120;28;20472;-79
2023/09/17 03:59:44;;;;;;;72.43;47.23;;;;;;;;;;5011133;28;20468;-79
2023/09/17 04:02:11;;;;;;;65.37;44.57;;;;;;;;;;5016995;28;20470;-80
2023/09/17 04:04:37;;;;;;;74.73;48.50;;;;;;;;;;5023484;28;20469;-79
2023/09/17 04:07:04;;;;;;;73.43;49.17;;;;;;;;;;5017907;28;20460;-79
2023/09/17 04:09:30;;;;;;;73.93;47.70;;;;;;;;;;5019374;28;20531;-79
2023/09/17 04:11:58;;;;;;;62.97;45.23;;;;;;;;;;4996532;28;20486;-81
2023/09/17 04:14:25;;;;;;;80.37;51.73;;;;;;;;;;5017001;28;20462;-79
2023/09/17 04:16:54;;;;;;;72.20;49.97;;;;;;;;;;5012576;28;20474;-79
2023/09/17 04:19:20;;;;;;;79.00;51.37;;;;;;;;;;5000447;28;20517;-80
2023/09/17 04:21:47;;;;;;;84.70;51.27;;;;;;;;;;5010361;28;20473;-80
2023/09/17 04:24:13;;;;;;;75.20;49.37;;;;;;;;;;5011966;28;20839;-81
2023/09/17 04:26:40;;;;;;;77.20;50.40;;;;;;;;;;5004610;28;21022;-78
2023/09/17 04:29:07;;;;;;;78.53;52.50;;;;;;;;;;4993928;28;20468;-80
2023/09/17 04:31:33;;;;;;;78.37;52.20;;;;;;;;;;5006249;28;20931;-79
2023/09/17 04:34:01;;;;;;;80.57;52.97;;;;;;;;;;5023872;28;20484;-79
2023/09/17 04:36:28;;;;;;;75.57;50.30;;;;;;;;;;5014467;28;20496;-79
2023/09/17 04:38:54;;;;;;;70.50;47.10;;;;;;;;;;5013852;28;21162;-80
2023/09/17 04:41:21;;;;;;;75.93;50.17;;;;;;;;;;5020954;28;20473;-79
2023/09/17 04:43:48;;;;;;;81.67;53.07;;;;;;;;;;5012911;28;20439;-79
2023/09/17 04:46:14;;;;;;;73.83;50.30;;;;;;;;;;5007386;28;20466;-79
2023/09/17 04:48:41;;;;;;;78.50;50.73;;;;;;;;;;5012508;28;20887;-80
2023/09/17 04:51:12;;;;;;;83.93;55.10;;;;;;;;;;4993845;28;20897;-82
2023/09/17 04:53:39;;;;;;;84.70;53.30;;;;;;;;;;4997767;28;20588;-82
2023/09/17 04:56:06;;;;;;;90.73;54.07;;;;;;;;;;5029620;28;20470;-83
2023/09/17 04:58:34;;;;;;;86.67;53.17;;;;;;;;;;5015838;28;20472;-83
2023/09/17 05:01:01;;;;;;;82.83;51.47;;;;;;;;;;5015179;28;20474;-82
2023/09/17 05:03:27;;;;;;;82.57;53.70;;;;;;;;;;5010090;28;20479;-83
2023/09/17 05:05:54;;;;;;;89.07;53.37;;;;;;;;;;5002311;28;21073;-81
2023/09/17 05:08:22;;;;;;;96.00;55.50;;;;;;;;;;4990629;28;20547;-82
2023/09/17 05:10:48;;;;;;;87.63;49.83;;;;;;;;;;5025652;28;20464;-82
2023/09/17 05:13:15;;;;;;;86.87;53.60;;;;;;;;;;4999979;28;20517;-81
2023/09/17 05:15:41;;;;;;;93.00;55.77;;;;;;;;;;5010067;28;20465;-80
2023/09/17 05:18:09;;;;;;;88.60;53.30;;;;;;;;;;4983286;28;20465;-81
2023/09/17 05:20:37;;;;;;;94.90;55.03;;;;;;;;;;5030274;28;20469;-81
2023/09/17 05:23:04;;;;;;;86.83;53.77;;;;;;;;;;5024550;28;20473;-79
2023/09/17 05:25:33;;;;;;;88.33;50.43;;;;;;;;;;5010825;28;20461;-80
2023/09/17 05:27:59;;;;;;;81.17;49.90;;;;;;;;;;5025792;28;20823;-81
2023/09/17 05:30:26;;;;;;;77.50;49.00;;;;;;;;;;5010516;28;21044;-80
2023/09/17 05:32:52;;;;;;;82.17;48.40;;;;;;;;;;4994551;28;20499;-81
2023/09/17 05:35:19;;;;;;;85.60;52.60;;;;;;;;;;5029048;28;20483;-81
2023/09/17 05:37:46;;;;;;;74.10;44.27;;;;;;;;;;5016984;28;20882;-80
2023/09/17 05:40:13;;;;;;;86.07;47.63;;;;;;;;;;5017682;28;21023;-80
2023/09/17 05:42:41;;;;;;;80.83;49.27;;;;;;;;;;5000461;28;20480;-80
2023/09/17 05:45:08;;;;;;;90.70;49.90;;;;;;;;;;5026450;28;20460;-82
2023/09/17 05:47:35;;;;;;;76.50;47.00;;;;;;;;;;5007802;28;20481;-82
2023/09/17 05:50:01;;;;;;;80.33;50.97;;;;;;;;;;5011642;28;20528;-80
2023/09/17 05:52:27;;;;;;;78.33;50.20;;;;;;;;;;5022529;28;20859;-82
2023/09/17 05:54:54;;;;;;;79.77;48.03;;;;;;;;;;5011087;28;20478;-80
2023/09/17 05:57:21;;;;;;;78.70;50.70;;;;;;;;;;5018479;28;20458;-81
2023/09/17 05:59:49;;;;;;;85.87;52.47;;;;;;;;;;4984539;28;20544;-80
2023/09/17 06:02:15;;;;;;;82.13;49.90;;;;;;;;;;5005433;28;20470;-81
2023/09/17 06:04:42;;;;;;;83.57;52.30;;;;;;;;;;4994425;28;21780;-82
2023/09/17 06:07:08;;;;;;;87.60;56.30;;;;;;;;;;5012983;28;20467;-83
2023/09/17 06:09:34;;;;;;;92.47;53.47;;;;;;;;;;5012832;28;21001;-81
2023/09/17 06:12:01;;;;;;;83.93;51.83;;;;;;;;;;5025976;28;20487;-80
2023/09/17 06:14:27;;;;;;;80.80;51.63;;;;;;;;;;5014194;28;20474;-81
2023/09/17 06:16:55;;;;;;;83.93;52.93;;;;;;;;;;5003941;28;20462;-81
2023/09/17 06:19:21;;;;;;;88.70;53.20;;;;;;;;;;5006187;28;20474;-82
2023/09/17 06:21:48;;;;;;;83.70;53.23;;;;;;;;;;5003772;28;20473;-81
2023/09/17 06:24:14;;;;;;;88.27;57.43;;;;;;;;;;4999058;28;20553;-80
2023/09/17 06:26:41;;;;;;;96.90;58.17;;;;;;;;;;5005740;28;21022;-80
2023/09/17 06:29:07;;;;;;;88.50;57.60;;;;;;;;;;5014077;28;20477;-81
2023/09/17 06:31:34;;;;;;;97.87;60.77;;;;;;;;;;5008339;28;20493;-81
2023/09/17 06:34:02;;;;;;;96.73;62.90;;;;;;;;;;4992738;28;20470;-81
2023/09/17 06:36:29;;;;;;;97.53;61.77;;;;;;;;;;5003086;28;20473;-80
2023/09/17 06:38:55;;;;;;;97.17;59.17;;;;;;;;;;5010020;28;20481;-80
2023/09/17 06:41:21;;;;;;;96.27;60.20;;;;;;;;;;5012977;28;20973;-81
2023/09/17 06:43:49;;;;;;;98.33;60.83;;;;;;;;;;5011284;28;20479;-79
2023/09/17 06:46:15;;;;;;;105.40;63.80;;;;;;;;;;5006084;28;20471;-81
2023/09/17 06:48:42;;;;;;;95.87;60.37;;;;;;;;;;5006991;28;20552;-82
2023/09/17 06:51:10;;;;;;;94.13;59.90;;;;;;;;;;5008810;28;21037;-81
2023/09/17 06:53:37;;;;;;;97.23;60.87;;;;;;;;;;4998520;28;20482;-80
2023/09/17 06:56:03;;;;;;;93.03;59.47;;;;;;;;;;4999587;28;20520;-79
2023/09/17 06:58:29;;;;;;;88.00;56.27;;;;;;;;;;5014686;28;20473;-81
2023/09/17 07:00:56;;;;;;;89.70;57.87;;;;;;;;;;5015685;28;21398;-81
2023/09/17 07:03:22;;;;;;;87.10;57.47;;;;;;;;;;5016002;28;20465;-80
2023/09/17 07:05:49;;;;;;;92.47;59.37;;;;;;;;;;5011173;28;20469;-82
2023/09/17 07:08:17;;;;;;;86.23;56.33;;;;;;;;;;5024498;28;20465;-83
2023/09/17 07:10:43;;;;;;;90.63;55.10;;;;;;;;;;5017975;28;20464;-81
2023/09/17 07:13:10;;;;;;;86.07;55.77;;;;;;;;;;5018469;28;20503;-81
2023/09/17 07:15:36;;;;;;;85.67;54.40;;;;;;;;;;5003543;28;20987;-80
2023/09/17 07:18:03;;;;;;;80.30;53.40;;;;;;;;;;5014316;28;21013;-81
2023/09/17 07:20:30;;;;;;;79.47;53.07;;;;;;;;;;5014202;28;20475;-82
2023/09/17 07:22:56;;;;;;;86.43;54.63;;;;;;;;;;5014409;28;20471;-81
2023/09/17 07:25:25;;;;;;;80.47;50.67;;;;;;;;;;5011154;28;20473;-80
2023/09/17 07:27:52;;;;;;;82.10;54.27;;;;;;;;;;5004065;28;20471;-83
2023/09/17 07:30:19;;;;;;;76.30;51.50;;;;;;;;;;5013285;28;21022;-81
2023/09/17 07:32:45;;;;;;;76.60;49.80;;;;;;;;;;5005151;28;20477;-81
2023/09/17 07:35:11;;;;;;;76.10;52.47;;;;;;;;;;5016001;28;20475;-81
2023/09/17 07:37:38;;;;;;;72.40;48.80;;;;;;;;;;5010548;28;20467;-82
2023/09/17 07:40:06;;;;;;;72.50;49.23;;;;;;;;;;5017645;28;21014;-79
2023/09/17 07:42:34;;;;;;;64.80;47.43;;;;;;;;;;5000988;28;20462;-81
2023/09/17 07:45:00;;;;;;;58.07;44.07;;;;;;;;;;5028878;28;20469;-80
2023/09/17 07:47:27;;;;;;;59.33;43.90;;;;;;;;;;4992936;28;20457;-80
2023/09/17 07:49:53;;;;;;;52.07;40.63;;;;;;;;;;5017022;28;20490;-81
2023/09/17 07:52:20;;;;;;;48.63;38.30;;;;;;;;;;5023854;28;20479;-79
2023/09/17 07:54:47;;;;;;;46.03;37.07;;;;;;;;;;4994511;28;20473;-80
2023/09/17 07:57:13;;;;;;;42.60;32.17;;;;;;;;;;4999856;28;20475;-81
2023/09/17 07:59:41;;;;;;;39.80;32.53;;;;;;;;;;4996597;28;20989;-81
2023/09/17 08:02:07;;;;;;;34.87;30.30;;;;;;;;;;5008738;28;21005;-78
2023/09/17 08:04:34;;;;;;;33.03;28.33;;;;;;;;;;5015922;28;20469;-79
2023/09/17 08:07:01;;;;;;;29.33;26.13;;;;;;;;;;5012618;28;21038;-80
2023/09/17 08:09:27;;;;;;;26.97;24.20;;;;;;;;;;4996390;28;20474;-80
2023/09/17 08:11:54;;;;;;;24.40;22.00;;;;;;;;;;4993820;28;20535;-80
2023/09/17 08:14:22;;;;;;;24.50;21.80;;;;;;;;;;5011415;28;20473;-81
2023/09/17 08:16:50;;;;;;;22.93;20.60;;;;;;;;;;5013268;28;20481;-79
2023/09/17 08:19:16;;;;;;;24.47;21.97;;;;;;;;;;5011010;28;20854;-80
2023/09/17 08:21:43;;;;;;;23.87;21.03;;;;;;;;;;5017586;28;20471;-81
2023/09/17 08:24:10;;;;;;;21.93;19.57;;;;;;;;;;5021173;28;20982;-81
2023/09/17 08:26:37;;;;;;;21.37;19.20;;;;;;;;;;5009788;28;21054;-80
2023/09/17 08:29:05;;;;;;;20.43;18.10;;;;;;;;;;4993214;28;20477;-81
2023/09/17 08:31:32;;;;;;;18.90;17.10;;;;;;;;;;5009874;28;20475;-80
2023/09/17 08:34:03;;;;;;;16.27;14.67;;;;;;;;;;5013443;28;21127;-79
2023/09/17 08:36:31;;;;;;;17.87;16.20;;;;;;;;;;5002054;28;20480;-80
2023/09/17 08:38:57;;;;;;;17.93;16.00;;;;;;;;;;5007107;28;20854;-81
2023/09/17 08:41:24;;;;;;;16.53;14.83;;;;;;;;;;5016502;28;20485;-80
2023/09/17 08:43:53;;;;;;;17.73;15.90;;;;;;;;;;5007511;28;20469;-79
2023/09/17 08:46:21;;;;;;;17.90;16.20;;;;;;;;;;5009880;28;20480;-80
2023/09/17 08:48:47;;;;;;;17.50;15.77;;;;;;;;;;5013397;28;20502;-81
2023/09/17 08:51:18;;;;;;;19.10;17.00;;;;;;;;;;4991962;28;20459;-81
2023/09/17 08:53:49;;;;;;;15.33;13.73;;;;;;;;;;5012213;28;20496;-81
2023/09/17 08:56:17;;;;;;;14.90;13.47;;;;;;;;;;5004203;28;20590;-80
2023/09/17 08:58:47;;;;;;;16.27;14.50;;;;;;;;;;5012036;28;20530;-78
2023/09/17 09:01:15;;;;;;;14.60;13.10;;;;;;;;;;4999864;28;20555;-81
2023/09/17 09:03:42;;;;;;;15.90;12.90;;;;;;;;;;5004251;28;20469;-79
2023/09/17 09:06:09;;;;;;;15.07;13.57;;;;;;;;;;5008123;28;20471;-80
2023/09/17 09:08:37;;;;;;;15.00;13.50;;;;;;;;;;5010983;28;20552;-80
2023/09/17 09:11:04;;;;;;;15.67;14.03;;;;;;;;;;5020855;28;20466;-81
2023/09/17 09:13:30;;;;;;;15.30;13.03;;;;;;;;;;5022554;28;20487;-78
2023/09/17 09:15:57;;;;;;;15.20;13.47;;;;;;;;;;5018157;28;21013;-80
2023/09/17 09:18:24;;;;;;;16.97;13.70;;;;;;;;;;5009516;28;20485;-79
2023/09/17 09:20:50;;;;;;;13.90;12.50;;;;;;;;;;5015938;28;20831;-80
2023/09/17 09:23:17;;;;;;;12.53;11.33;;;;;;;;;;4994329;28;20468;-79
2023/09/17 09:25:45;;;;;;;12.50;11.30;;;;;;;;;;5013311;28;20466;-81
2023/09/17 09:28:12;;;;;;;10.93;9.83;;;;;;;;;;5009127;28;20502;-80
2023/09/17 09:30:39;;;;;;;13.87;12.57;;;;;;;;;;5003583;28;21372;-80
2023/09/17 09:33:06;;;;;;;13.67;12.27;;;;;;;;;;5002536;28;20923;-78
2023/09/17 09:35:32;;;;;;;11.73;10.63;;;;;;;;;;5022773;28;21008;-80
2023/09/17 09:38:01;;;;;;;14.50;13.17;;;;;;;;;;5019012;28;20467;-81
2023/09/17 09:40:27;;;;;;;13.00;11.40;;;;;;;;;;5008632;28;21037;-81
2023/09/17 09:42:55;;;;;;;12.77;11.57;;;;;;;;;;4988578;28;21095;-79
2023/09/17 09:45:23;;;;;;;13.60;12.27;;;;;;;;;;5003595;28;20471;-78
2023/09/17 09:47:50;;;;;;;12.30;11.10;;;;;;;;;;5002547;28;20473;-80
2023/09/17 09:50:23;;;;;;;13.63;12.23;;;;;;;;;;5022888;28;20475;-79
2023/09/17 09:52:50;;;;;;;14.77;13.27;;;;;;;;;;5011603;28;20488;-78
2023/09/17 09:55:16;;;;;;;13.80;12.60;;;;;;;;;;5016480;28;20479;-78
2023/09/17 09:57:43;;;;;;;14.10;12.90;;;;;;;;;;4995691;28;20477;-80
2023/09/17 10:00:14;;;;;;;14.43;13.13;;;;;;;;;;5012142;28;20493;-80
2023/09/17 10:02:41;;;;;;;13.63;12.43;;;;;;;;;;4986984;28;20467;-80
2023/09/17 10:05:08;;;;;;;12.23;11.20;;;;;;;;;;5005515;28;20563;-79
2023/09/17 10:07:37;;;;;;;12.50;11.30;;;;;;;;;;5005223;28;20475;-81
2023/09/17 10:10:04;;;;;;;13.40;12.03;;;;;;;;;;5030032;28;20468;-79
2023/09/17 10:12:30;;;;;;;11.97;10.77;;;;;;;;;;5014641;28;20539;-80
2023/09/17 10:14:57;;;;;;;13.93;12.43;;;;;;;;;;5028118;28;20472;-80
2023/09/17 10:17:25;;;;;;;13.93;12.63;;;;;;;;;;5001533;28;20473;-80
2023/09/17 10:19:52;;;;;;;13.50;10.50;;;;;;;;;;5012443;28;20483;-82
2023/09/17 10:22:19;;;;;;;12.17;11.17;;;;;;;;;;5001455;28;20466;-81
2023/09/17 10:24:46;;;;;;;12.13;10.90;;;;;;;;;;5016509;28;20493;-78
2023/09/17 10:27:13;;;;;;;12.30;11.20;;;;;;;;;;5012036;28;20474;-78
2023/09/17 10:29:41;;;;;;;10.80;9.70;;;;;;;;;;5017027;28;20472;-78
2023/09/17 10:32:09;;;;;;;10.33;9.33;;;;;;;;;;5013147;28;20470;-78
2023/09/17 10:34:36;;;;;;;10.20;9.17;;;;;;;;;;5014944;28;20504;-79
2023/09/17 10:37:04;;;;;;;11.87;10.80;;;;;;;;;;5016539;28;21031;-80
2023/09/17 10:39:31;;;;;;;10.47;9.30;;;;;;;;;;5009022;28;20471;-80
2023/09/17 10:41:58;;;;;;;14.10;9.60;;;;;;;;;;5015408;28;21014;-79
2023/09/17 10:44:25;;;;;;;9.83;9.03;;;;;;;;;;5013751;28;20483;-81
2023/09/17 10:46:53;;;;;;;12.20;11.00;;;;;;;;;;5007224;28;20473;-78
2023/09/17 10:49:20;;;;;;;10.50;9.60;;;;;;;;;;5005385;28;20465;-79
2023/09/17 10:51:49;;;;;;;9.67;8.77;;;;;;;;;;5009251;28;20465;-79
2023/09/17 10:54:15;;;;;;;13.13;9.67;;;;;;;;;;5006928;28;20492;-80
2023/09/17 10:56:45;;;;;;;9.80;8.80;;;;;;;;;;5004351;28;20994;-78
2023/09/17 10:59:13;;;;;;;10.80;9.80;;;;;;;;;;5017952;28;20474;-79
2023/09/17 11:01:41;;;;;;;9.63;8.67;;;;;;;;;;4999565;28;20502;-81
2023/09/17 11:04:10;;;;;;;9.27;8.47;;;;;;;;;;5012731;28;20477;-80
2023/09/17 11:06:38;;;;;;;10.83;9.73;;;;;;;;;;5013802;28;20475;-80
2023/09/17 11:09:06;;;;;;;14.90;9.47;;;;;;;;;;4998681;28;20469;-80
2023/09/17 11:11:34;;;;;;;9.70;8.80;;;;;;;;;;5007176;28;20470;-78
2023/09/17 11:14:02;;;;;;;10.33;8.77;;;;;;;;;;5013919;28;20494;-80
2023/09/17 11:16:30;;;;;;;8.90;8.20;;;;;;;;;;4978675;28;20468;-80
2023/09/17 11:19:06;;;;;;;10.00;8.50;;;;;;;;;;5005183;28;20467;-79
2023/09/17 11:21:34;;;;;;;9.33;8.50;;;;;;;;;;4997157;28;20463;-80
2023/09/17 11:24:03;;;;;;;9.47;8.57;;;;;;;;;;5012960;28;20560;-78
2023/09/17 11:26:32;;;;;;;8.03;7.43;;;;;;;;;;5001635;28;20554;-79
2023/09/17 11:28:59;;;;;;;10.93;9.37;;;;;;;;;;4996821;28;20536;-80
2023/09/17 11:31:26;;;;;;;9.63;8.47;;;;;;;;;;5004605;28;20455;-79
2023/09/17 11:33:52;;;;;;;9.30;8.50;;;;;;;;;;5014716;28;20496;-81
2023/09/17 11:36:19;;;;;;;8.53;7.90;;;;;;;;;;5007487;28;20475;-81
2023/09/17 11:38:47;;;;;;;7.73;7.07;;;;;;;;;;5006225;28;20463;-78
2023/09/17 11:44:10;;;;;;;8.63;6.17;;;;;;;;;;5014233;28;20481;-78
2023/09/17 11:46:38;;;;;;;8.47;7.77;;;;;;;;;;5012327;28;20457;-79
2023/09/17 11:49:08;;;;;;;8.40;7.60;;;;;;;;;;5013844;28;20469;-80
2023/09/17 11:51:34;;;;;;;7.40;6.70;;;;;;;;;;5018575;28;20461;-78
2023/09/17 11:54:02;;;;;;;8.50;7.70;;;;;;;;;;5003290;28;20496;-80
2023/09/17 11:56:29;;;;;;;8.40;7.60;;;;;;;;;;5012645;28;20470;-81
2023/09/17 11:59:03;;;;;;;8.80;7.30;;;;;;;;;;5017429;28;20466;-79
2023/09/17 12:01:33;;;;;;;8.23;7.53;;;;;;;;;;5007237;28;20465;-79
2023/09/17 12:04:00;;;;;;;9.87;8.70;;;;;;;;;;5018115;28;20472;-78
2023/09/17 12:06:27;;;;;;;10.03;8.10;;;;;;;;;;5015695;28;20481;-80
2023/09/17 12:09:06;;;;;;;;;;;;;;;;;;;;;
2023/09/17 12:11:35;;;;;;;8.10;7.33;;;;;;;;;;5010220;28;21059;-80
2023/09/17 12:14:02;;;;;;;8.33;7.47;;;;;;;;;;5011895;28;20494;-80
2023/09/17 12:16:29;;;;;;;8.10;7.40;;;;;;;;;;4999158;28;20471;-79
2023/09/17 12:18:56;;;;;;;8.07;7.27;;;;;;;;;;5013203;28;20516;-80
2023/09/17 12:21:25;;;;;;;10.30;7.57;;;;;;;;;;5000546;28;20474;-80
2023/09/17 12:23:57;;;;;;;8.70;7.87;;;;;;;;;;5002029;28;20482;-80
2023/09/17 12:26:54;;;;;;;8.77;7.87;;;;;;;;;;5012375;28;20458;-80
2023/09/17 12:29:20;;;;;;;8.07;7.37;;;;;;;;;;5006835;28;23275;-81
2023/09/17 12:31:50;;;;;;;9.77;8.70;;;;;;;;;;5008845;28;20474;-78
2023/09/17 12:34:20;;;;;;;9.23;8.33;;;;;;;;;;5016899;28;20499;-78
2023/09/17 12:36:46;;;;;;;9.03;8.17;;;;;;;;;;5013412;28;20465;-79
2023/09/17 12:39:13;;;;;;;8.83;7.93;;;;;;;;;;5009802;28;20484;-80
2023/09/17 12:41:40;;;;;;;9.43;8.40;;;;;;;;;;5010539;28;20461;-80
2023/09/17 12:44:07;;;;;;;9.80;8.83;;;;;;;;;;5010103;28;20482;-81
2023/09/17 12:46:34;;;;;;;9.00;8.20;;;;;;;;;;5008049;28;20473;-79
2023/09/17 12:49:01;;;;;;;8.87;8.00;;;;;;;;;;5016312;28;20457;-80
2023/09/17 12:51:28;;;;;;;9.00;7.93;;;;;;;;;;5019232;28;21038;-79
2023/09/17 12:53:57;;;;;;;9.00;8.20;;;;;;;;;;5005493;28;20500;-81
2023/09/17 12:56:27;;;;;;;8.67;7.77;;;;;;;;;;5004152;28;20474;-80
2023/09/17 12:58:53;;;;;;;8.10;7.30;;;;;;;;;;4983553;28;20521;-78
2023/09/17 13:01:20;;;;;;;12.70;8.93;;;;;;;;;;5026754;28;20552;-82
2023/09/17 13:03:54;;;;;;;8.50;7.80;;;;;;;;;;5022598;28;20489;-80
2023/09/17 13:06:20;;;;;;;9.83;7.80;;;;;;;;;;5014478;28;20495;-79
2023/09/17 13:08:49;;;;;;;8.00;7.30;;;;;;;;;;4982752;28;20473;-80
2023/09/17 13:11:16;;;;;;;9.03;8.23;;;;;;;;;;5003735;28;20477;-80
2023/09/17 13:13:44;;;;;;;9.23;8.27;;;;;;;;;;5001194;28;20560;-82
2023/09/17 13:16:10;;;;;;;8.50;7.70;;;;;;;;;;5013403;28;20468;-80
2023/09/17 13:18:37;;;;;;;8.17;7.30;;;;;;;;;;5001125;28;20529;-81
2023/09/17 13:21:04;;;;;;;8.27;7.47;;;;;;;;;;5013282;28;21003;-80
2023/09/17 13:23:31;;;;;;;8.83;7.93;;;;;;;;;;5013592;28;20446;-81
2023/09/17 13:25:58;;;;;;;8.77;7.97;;;;;;;;;;5035505;28;20467;-80
2023/09/17 13:28:25;;;;;;;9.67;7.70;;;;;;;;;;5001042;28;20993;-79
2023/09/17 13:30:51;;;;;;;7.77;7.07;;;;;;;;;;5012826;28;20472;-78
2023/09/17 13:33:18;;;;;;;7.53;6.93;;;;;;;;;;5013784;28;20473;-78
2023/09/17 13:35:50;;;;;;;7.70;7.00;;;;;;;;;;5025064;28;21006;-80
2023/09/17 13:38:17;;;;;;;7.20;6.60;;;;;;;;;;4991186;28;20998;-80
2023/09/17 13:40:47;;;;;;;6.57;6.07;;;;;;;;;;5010134;28;20477;-80
2023/09/17 13:43:15;;;;;;;7.60;6.90;;;;;;;;;;5004917;28;21028;-80
2023/09/17 13:45:53;;;;;;;6.40;5.90;;;;;;;;;;5021395;28;20468;-78
2023/09/17 13:48:20;;;;;;;7.00;6.40;;;;;;;;;;5022579;28;20853;-79
2023/09/17 13:50:47;;;;;;;8.00;7.00;;;;;;;;;;5016440;28;20530;-79
2023/09/17 13:53:13;;;;;;;7.13;6.43;;;;;;;;;;5019204;28;20484;-79
2023/09/17 13:55:40;;;;;;;7.10;6.43;;;;;;;;;;5012321;28;20500;-79
2023/09/17 13:58:06;;;;;;;9.47;6.70;;;;;;;;;;5018030;28;20544;-80
2023/09/17 14:00:34;;;;;;;7.03;6.43;;;;;;;;;;4986843;28;20484;-80
2023/09/17 14:03:02;;;;;;;7.33;6.63;;;;;;;;;;5018448;28;20466;-81
2023/09/17 14:05:29;;;;;;;7.53;6.53;;;;;;;;;;5013269;28;20486;-80
2023/09/17 14:07:56;;;;;;;7.77;7.17;;;;;;;;;;5010349;28;20499;-80
2023/09/17 14:10:24;;;;;;;7.43;6.83;;;;;;;;;;5011339;28;20518;-82
2023/09/17 14:12:50;;;;;;;7.97;7.07;;;;;;;;;;5005187;28;20501;-81
2023/09/17 14:15:16;;;;;;;7.07;6.40;;;;;;;;;;4961564;28;1499616;-81
2023/09/17 14:17:44;;;;;;;7.30;6.60;;;;;;;;;;5006296;28;20219;-79
2023/09/17 14:20:11;;;;;;;7.57;6.97;;;;;;;;;;5023985;28;20507;-80
2023/09/17 14:22:38;;;;;;;8.00;7.20;;;;;;;;;;5019729;28;20472;-81
2023/09/17 14:25:05;;;;;;;6.80;6.20;;;;;;;;;;4986346;28;20477;-80
2023/09/17 14:27:32;;;;;;;8.70;7.90;;;;;;;;;;5001200;28;21185;-79